createdAt,value
2022-10-08T00:02:27.139Z,6.50
2022-10-08T00:04:55.924Z,4.17
2022-10-08T00:07:25.705Z,4.45
2022-10-08T00:09:54.316Z,4.58
2022-10-08T00:12:22.841Z,4.22
2022-10-08T00:14:51.408Z,8.60
2022-10-08T00:17:19.936Z,6.05
2022-10-08T00:19:48.497Z,4.40
2022-10-08T00:22:17.028Z,7.35
2022-10-08T00:24:46.557Z,6.50
2022-10-08T00:27:16.968Z,4.30
2022-10-08T00:29:45.502Z,4.90
2022-10-08T00:32:14.054Z,5.37
2022-10-08T00:34:43.186Z,3.72
2022-10-08T00:37:11.872Z,6.95
2022-10-08T00:39:41.272Z,6.25
2022-10-08T00:42:12.539Z,5.80
2022-10-08T00:44:51.223Z,4.85
2022-10-08T00:47:37.929Z,5.00
2022-10-08T00:50:09.562Z,2.58
2022-10-08T00:52:43.844Z,7.25
2022-10-08T00:55:15.227Z,3.80
2022-10-08T00:57:44.055Z,3.22
2022-10-08T01:00:33.233Z,3.92
2022-10-08T01:03:03.765Z,3.55
2022-10-08T01:05:52.551Z,4.08
2022-10-08T01:08:32.766Z,5.78
2022-10-08T01:11:28.067Z,3.95
2022-10-08T01:14:08.231Z,4.12
2022-10-08T01:16:39.905Z,6.37
2022-10-08T01:19:38.296Z,6.33
2022-10-08T01:22:25.018Z,2.95
2022-10-08T01:25:14.372Z,4.67
2022-10-08T01:27:46.209Z,2.30
2022-10-08T01:30:17.602Z,4.63
2022-10-08T01:32:49.482Z,6.08
2022-10-08T01:35:43.753Z,3.67
2022-10-08T01:38:15.391Z,5.10
2022-10-08T01:40:46.474Z,4.08
2022-10-08T01:43:18.083Z,1.95
2022-10-08T01:46:07.542Z,4.97
2022-10-08T01:48:39.216Z,2.85
2022-10-08T01:51:19.898Z,7.58
2022-10-08T01:53:50.946Z,2.42
2022-10-08T01:56:22.564Z,3.22
2022-10-08T01:58:54.375Z,3.02
2022-10-08T02:01:31.764Z,5.15
2022-10-08T02:04:18.466Z,3.30
2022-10-08T02:06:50.420Z,2.42
2022-10-08T02:09:19.755Z,2.87
2022-10-08T02:11:48.344Z,6.20
2022-10-08T02:14:17.040Z,3.52
2022-10-08T02:16:48.754Z,5.45
2022-10-08T02:19:32.466Z,4.83
2022-10-08T02:22:03.804Z,4.62
2022-10-08T02:24:47.412Z,4.53
2022-10-08T02:27:17.801Z,4.72
2022-10-08T02:29:49.404Z,4.45
2022-10-08T02:32:21.020Z,3.92
2022-10-08T02:34:55.905Z,3.22
2022-10-08T02:37:30.418Z,5.75
2022-10-08T02:40:05.402Z,2.58
2022-10-08T02:42:46.078Z,6.05
2022-10-08T02:45:26.993Z,2.50
2022-10-08T02:47:58.597Z,3.00
2022-10-08T02:50:30.143Z,4.58
2022-10-08T02:52:59.608Z,3.35
2022-10-08T02:56:00.874Z,3.35
2022-10-08T02:58:29.743Z,3.20
2022-10-08T03:01:01.364Z,3.35
2022-10-08T03:03:35.607Z,1.55
2022-10-08T03:06:07.197Z,6.05
2022-10-08T03:08:39.504Z,5.37
2022-10-08T03:11:08.474Z,7.12
2022-10-08T03:13:40.406Z,3.70
2022-10-08T03:16:11.731Z,2.80
2022-10-08T03:18:41.865Z,4.45
2022-10-08T03:21:13.122Z,4.40
2022-10-08T03:23:41.888Z,7.03
2022-10-08T03:26:10.502Z,2.55
2022-10-08T03:28:39.122Z,2.17
2022-10-08T03:31:07.910Z,3.08
2022-10-08T03:33:36.560Z,6.00
2022-10-08T03:36:06.407Z,4.42
2022-10-08T03:38:55.833Z,4.33
2022-10-08T03:41:25.479Z,4.30
2022-10-08T03:43:54.114Z,3.80
2022-10-08T03:46:22.669Z,3.70
2022-10-08T03:48:51.264Z,4.45
2022-10-08T03:51:21.448Z,5.37
2022-10-08T03:53:49.988Z,3.05
2022-10-08T03:56:21.520Z,4.50
2022-10-08T03:58:55.629Z,2.60
2022-10-08T04:01:25.481Z,3.58
2022-10-08T04:03:54.382Z,7.60
2022-10-08T04:06:23.672Z,4.53
2022-10-08T04:08:52.274Z,2.83
2022-10-08T04:11:21.255Z,3.75
2022-10-08T04:13:49.798Z,7.37
2022-10-08T04:16:19.900Z,4.22
2022-10-08T04:18:49.253Z,4.50
2022-10-08T04:21:19.649Z,6.25
2022-10-08T04:23:51.770Z,3.08
2022-10-08T04:26:20.397Z,8.03
2022-10-08T04:28:49.077Z,2.80
2022-10-08T04:31:40.967Z,4.92
2022-10-08T04:34:19.998Z,2.92
2022-10-08T04:36:52.934Z,4.17
2022-10-08T04:39:30.229Z,5.17
2022-10-08T04:42:00.485Z,6.85
2022-10-08T04:44:30.575Z,4.67
2022-10-08T04:47:00.643Z,3.17
2022-10-08T04:49:32.911Z,3.60
2022-10-08T04:52:01.451Z,3.87
2022-10-08T04:54:31.517Z,8.43
2022-10-08T04:57:13.326Z,3.85
2022-10-08T04:59:33.265Z,6.05
2022-10-08T05:02:04.858Z,3.20
2022-10-08T05:04:33.642Z,4.15
2022-10-08T05:07:06.586Z,3.70
2022-10-08T05:09:34.253Z,4.53
2022-10-08T05:12:02.972Z,6.58
2022-10-08T05:14:31.550Z,6.20
2022-10-08T05:17:01.297Z,6.40
2022-10-08T05:19:30.391Z,5.08
2022-10-08T05:21:58.930Z,4.58
2022-10-08T05:24:28.851Z,4.17
2022-10-08T05:26:59.031Z,5.60
2022-10-08T05:29:29.602Z,6.42
2022-10-08T05:32:02.741Z,5.28
2022-10-08T05:34:31.295Z,5.95
2022-10-08T05:36:59.826Z,6.87
2022-10-08T05:39:28.372Z,12.05
2022-10-08T05:41:56.982Z,5.30
2022-10-08T05:44:25.517Z,7.80
2022-10-08T05:46:54.111Z,5.28
2022-10-08T05:49:24.186Z,8.18
2022-10-08T05:51:52.796Z,6.62
2022-10-08T05:54:21.996Z,5.65
2022-10-08T05:56:50.693Z,4.05
2022-10-08T05:59:24.587Z,7.15
2022-10-08T06:01:53.427Z,7.72
2022-10-08T06:04:22.176Z,5.28
2022-10-08T06:06:50.868Z,6.58
2022-10-08T06:09:21.338Z,6.33
2022-10-08T06:12:12.610Z,7.70
2022-10-08T06:14:41.626Z,8.25
2022-10-08T06:17:10.143Z,6.00
2022-10-08T06:19:38.625Z,8.28
2022-10-08T06:22:07.161Z,9.20
2022-10-08T06:24:35.718Z,3.17
2022-10-08T06:27:04.252Z,3.15
2022-10-08T06:29:32.799Z,5.58
2022-10-08T06:32:01.340Z,3.85
2022-10-08T06:34:29.801Z,5.10
2022-10-08T06:36:58.330Z,4.45
2022-10-08T06:39:26.956Z,4.45
2022-10-08T06:41:55.500Z,5.08
2022-10-08T06:44:24.053Z,7.53
2022-10-08T06:46:52.735Z,8.03
2022-10-08T06:49:22.926Z,7.35
2022-10-08T06:51:51.584Z,9.08
2022-10-08T06:54:20.095Z,9.35
2022-10-08T06:56:48.571Z,11.70
2022-10-08T06:59:17.327Z,10.80
2022-10-08T07:01:47.326Z,10.25
2022-10-08T07:04:42.804Z,12.43
2022-10-08T07:07:24.824Z,9.78
2022-10-08T07:10:01.093Z,13.03
2022-10-08T07:12:29.730Z,9.55
2022-10-08T07:15:01.123Z,11.85
2022-10-08T07:17:41.401Z,10.38
2022-10-08T07:20:13.858Z,8.90
2022-10-08T07:22:44.324Z,9.20
2022-10-08T07:25:26.060Z,9.60
2022-10-08T07:27:55.120Z,10.82
2022-10-08T07:30:34.874Z,12.35
2022-10-08T07:33:07.026Z,12.68
2022-10-08T07:35:35.531Z,11.27
2022-10-08T07:38:08.616Z,14.60
2022-10-08T07:40:39.131Z,15.70
2022-10-08T07:43:07.711Z,17.25
2022-10-08T07:45:37.917Z,12.88
2022-10-08T07:48:06.472Z,17.65
2022-10-08T07:50:35.048Z,21.77
2022-10-08T07:53:06.769Z,11.68
2022-10-08T07:55:35.415Z,13.32
2022-10-08T07:58:05.034Z,10.90
2022-10-08T08:00:33.864Z,10.60
2022-10-08T08:03:03.507Z,10.60
2022-10-08T08:05:36.594Z,10.05
2022-10-08T08:08:08.432Z,10.00
2022-10-08T08:10:37.359Z,13.05
2022-10-08T08:13:05.987Z,10.23
2022-10-08T08:15:36.513Z,10.48
2022-10-08T08:18:05.591Z,11.95
2022-10-08T08:20:34.160Z,12.05
2022-10-08T08:23:02.827Z,10.85
2022-10-08T08:25:31.559Z,14.03
2022-10-08T08:28:02.891Z,6.92
2022-10-08T08:30:36.714Z,10.25
2022-10-08T08:33:05.086Z,9.33
2022-10-08T08:35:39.247Z,12.37
2022-10-08T08:38:34.764Z,13.18
2022-10-08T08:41:38.400Z,8.38
2022-10-08T08:44:19.507Z,9.63
2022-10-08T08:46:53.913Z,6.62
2022-10-08T08:49:58.707Z,9.70
2022-10-08T08:52:30.748Z,8.83
2022-10-08T08:54:59.381Z,8.17
2022-10-08T08:57:43.055Z,8.63
2022-10-08T09:00:20.972Z,7.78
2022-10-08T09:03:28.665Z,10.38
2022-10-08T09:06:00.650Z,11.00
2022-10-08T09:08:34.920Z,11.03
2022-10-08T09:11:25.501Z,8.83
2022-10-08T09:14:15.564Z,8.45
2022-10-08T09:16:44.288Z,9.35
2022-10-08T09:19:12.847Z,7.00
2022-10-08T09:21:41.395Z,6.70
2022-10-08T09:24:11.880Z,7.28
2022-10-08T09:26:41.205Z,5.50
2022-10-08T09:29:13.876Z,8.55
2022-10-08T09:31:49.605Z,6.22
2022-10-08T09:34:20.388Z,7.60
2022-10-08T09:36:52.174Z,6.58
2022-10-08T09:39:26.295Z,8.80
2022-10-08T09:42:15.227Z,6.15
2022-10-08T09:44:49.080Z,6.08
2022-10-08T09:47:20.810Z,8.73
2022-10-08T09:50:07.909Z,8.30
2022-10-08T09:52:37.806Z,6.25
2022-10-08T09:55:21.452Z,7.85
2022-10-08T09:58:00.444Z,6.65
2022-10-08T10:00:37.517Z,6.05
2022-10-08T10:03:08.624Z,6.40
2022-10-08T10:05:38.159Z,10.82
2022-10-08T10:08:06.845Z,6.25
2022-10-08T10:10:41.539Z,5.47
2022-10-08T10:13:21.708Z,6.60
2022-10-08T10:16:09.950Z,9.00
2022-10-08T10:18:53.618Z,4.95
2022-10-08T10:21:28.127Z,3.60
2022-10-08T10:24:08.645Z,3.65
2022-10-08T10:26:40.367Z,4.10
2022-10-08T10:29:17.929Z,6.65
2022-10-08T10:31:49.577Z,5.10
2022-10-08T10:34:30.003Z,3.87
2022-10-08T10:37:01.579Z,4.35
2022-10-08T10:39:51.355Z,2.30
2022-10-08T10:42:43.799Z,5.78
2022-10-08T10:45:24.263Z,3.23
2022-10-08T10:47:54.570Z,3.30
2022-10-08T10:50:27.288Z,3.15
2022-10-08T10:53:07.481Z,2.20
2022-10-08T10:55:50.308Z,4.40
2022-10-08T10:58:32.590Z,5.95
2022-10-08T11:01:26.696Z,3.62
2022-10-08T11:04:41.790Z,2.15
2022-10-08T11:07:13.421Z,2.75
2022-10-08T11:09:57.120Z,2.52
2022-10-08T11:12:42.063Z,2.30
2022-10-08T11:15:13.709Z,3.05
2022-10-08T11:20:37.145Z,3.22
2022-10-08T11:23:22.168Z,2.40
2022-10-08T11:26:21.963Z,2.65
2022-10-08T11:28:38.403Z,1.65
2022-10-08T11:31:08.219Z,3.75
2022-10-08T11:33:36.713Z,1.60
2022-10-08T11:36:18.706Z,2.95
2022-10-08T11:39:28.507Z,3.00
2022-10-08T11:41:58.232Z,2.17
2022-10-08T11:44:27.219Z,2.40
2022-10-08T11:46:56.973Z,3.70
2022-10-08T12:31:22.937Z,1.05
2022-10-08T12:51:05.013Z,2.08
2022-10-08T13:42:58.750Z,2.42
2022-10-08T13:45:28.768Z,1.65
2022-10-08T13:47:57.224Z,3.27
2022-10-08T13:50:25.457Z,3.67
2022-10-08T13:52:54.927Z,3.08
2022-10-08T13:55:27.467Z,2.75
2022-10-08T13:57:56.563Z,0.75
2022-10-08T14:00:24.903Z,1.47
2022-10-08T14:02:54.009Z,2.75
2022-10-08T14:05:22.791Z,2.25
2022-10-08T14:07:52.527Z,2.95
2022-10-08T14:10:20.804Z,1.52
2022-10-08T14:12:49.006Z,3.05
2022-10-08T14:15:18.841Z,1.12
2022-10-08T14:17:49.244Z,0.55
2022-10-08T14:20:17.822Z,3.72
2022-10-08T14:22:46.203Z,2.58
2022-10-08T14:25:21.824Z,2.40
2022-10-08T14:27:50.447Z,1.32
2022-10-08T14:30:20.787Z,1.52
2022-10-08T14:32:49.026Z,2.45
2022-10-08T14:35:18.919Z,3.83
2022-10-08T14:37:48.016Z,1.90
2022-10-08T14:40:22.959Z,0.90
2022-10-08T14:42:51.940Z,1.02
2022-10-08T14:45:22.409Z,2.42
2022-10-08T14:47:50.929Z,2.52
2022-10-08T14:50:20.861Z,1.37
2022-10-08T14:52:49.752Z,4.12
2022-10-08T14:55:20.100Z,2.05
2022-10-08T14:57:48.676Z,2.80
2022-10-08T15:00:17.620Z,2.17
2022-10-08T15:02:46.484Z,2.75
2022-10-08T15:05:15.330Z,1.75
2022-10-08T15:07:44.000Z,1.57
2022-10-08T15:10:12.725Z,1.07
2022-10-08T15:12:41.257Z,3.85
2022-10-08T15:15:10.085Z,1.77
2022-10-08T15:17:38.626Z,2.22
2022-10-08T15:20:07.696Z,1.92
2022-10-08T15:22:36.279Z,1.95
2022-10-08T15:25:05.103Z,0.70
2022-10-08T15:27:33.701Z,2.02
2022-10-08T15:30:02.233Z,3.58
2022-10-08T15:32:30.882Z,1.92
2022-10-08T15:34:59.662Z,0.80
2022-10-08T15:37:28.270Z,2.60
2022-10-08T15:39:56.858Z,4.12
2022-10-08T15:42:25.472Z,1.82
2022-10-08T15:44:55.071Z,3.83
2022-10-08T15:47:23.641Z,2.60
2022-10-08T15:49:52.519Z,1.85
2022-10-08T15:52:22.222Z,1.07
2022-10-08T15:54:50.768Z,1.55
2022-10-08T15:57:19.913Z,0.80
2022-10-08T15:59:48.517Z,0.55
2022-10-08T16:02:18.175Z,2.20
2022-10-08T16:04:48.287Z,1.55
2022-10-08T16:07:17.858Z,1.00
2022-10-08T16:09:46.642Z,2.55
2022-10-08T16:12:15.253Z,1.65
2022-10-08T16:14:43.869Z,3.65
2022-10-08T16:17:12.452Z,3.05
2022-10-08T16:19:41.905Z,1.50
2022-10-08T16:22:17.117Z,1.12
2022-10-08T16:24:41.223Z,2.08
2022-10-08T16:27:09.931Z,1.65
2022-10-08T16:29:38.616Z,2.77
2022-10-08T16:32:07.230Z,0.80
2022-10-08T16:34:36.641Z,3.27
2022-10-08T16:37:06.869Z,0.50
2022-10-08T16:39:35.540Z,3.42
2022-10-08T16:42:04.182Z,2.83
2022-10-08T16:44:32.725Z,1.35
2022-10-08T16:47:01.246Z,2.92
2022-10-08T16:49:41.828Z,1.15
2022-10-08T16:52:10.724Z,1.72
2022-10-08T16:54:39.291Z,1.27
2022-10-08T16:57:07.899Z,1.87
2022-10-08T16:59:38.076Z,2.45
2022-10-08T17:02:06.796Z,3.90
2022-10-08T17:04:37.233Z,2.72
2022-10-08T17:07:07.482Z,2.58
2022-10-08T17:09:57.008Z,2.15
2022-10-08T17:12:25.645Z,2.20
2022-10-08T17:14:54.184Z,3.20
2022-10-08T17:17:22.718Z,2.17
2022-10-08T17:19:51.279Z,3.25
2022-10-08T17:22:19.898Z,2.10
2022-10-08T17:24:48.444Z,2.35
2022-10-08T17:27:17.061Z,1.52
2022-10-08T17:29:45.648Z,2.85
2022-10-08T17:32:14.196Z,4.45
2022-10-08T17:34:42.737Z,2.20
2022-10-08T17:37:11.335Z,1.62
2022-10-08T17:39:39.878Z,1.62
2022-10-08T17:42:08.421Z,2.05
2022-10-08T17:44:37.067Z,2.98
2022-10-08T17:47:06.493Z,3.17
2022-10-08T17:49:35.127Z,2.12
2022-10-08T17:52:03.676Z,5.15
2022-10-08T17:54:32.289Z,1.47
2022-10-08T17:57:00.922Z,1.25
2022-10-08T17:59:29.472Z,5.12
2022-10-08T18:01:58.043Z,4.15
2022-10-08T18:04:26.569Z,2.67
2022-10-08T18:06:58.659Z,1.32
2022-10-08T18:09:25.908Z,1.98
2022-10-08T18:11:55.194Z,2.92
2022-10-08T18:14:23.960Z,2.25
2022-10-08T18:16:52.804Z,1.30
2022-10-08T18:19:21.438Z,3.50
2022-10-08T18:21:50.170Z,2.52
2022-10-08T18:24:19.055Z,3.25
2022-10-08T18:26:47.724Z,2.02
2022-10-08T18:29:16.432Z,2.12
2022-10-08T18:31:46.731Z,4.70
2022-10-08T18:34:17.946Z,3.02
2022-10-08T18:36:47.213Z,1.98
2022-10-08T18:39:18.206Z,1.65
2022-10-08T18:41:49.101Z,3.05
2022-10-08T18:44:20.769Z,3.37
2022-10-08T18:46:49.590Z,2.55
2022-10-08T18:49:20.607Z,3.42
2022-10-08T18:51:50.700Z,4.58
2022-10-08T18:54:19.349Z,3.85
2022-10-08T18:56:47.909Z,1.92
2022-10-08T18:59:17.705Z,3.33
2022-10-08T19:01:48.053Z,5.78
2022-10-08T19:04:19.774Z,2.87
2022-10-08T19:06:50.854Z,5.25
2022-10-08T19:09:19.575Z,3.08
2022-10-08T19:11:50.897Z,5.33
2022-10-08T19:14:21.211Z,4.10
2022-10-08T19:16:49.817Z,2.60
2022-10-08T19:19:21.522Z,3.08
2022-10-08T19:21:50.531Z,4.22
2022-10-08T19:24:24.791Z,2.83
2022-10-08T19:26:54.477Z,2.65
2022-10-08T19:29:25.663Z,3.17
2022-10-08T19:31:54.204Z,2.80
2022-10-08T19:34:25.471Z,1.80
2022-10-08T19:36:54.266Z,4.40
2022-10-08T19:39:25.747Z,2.47
2022-10-08T19:41:54.503Z,2.95
2022-10-08T19:44:23.307Z,3.00
2022-10-08T19:46:52.081Z,2.50
2022-10-08T19:49:21.204Z,1.85
2022-10-08T19:51:49.916Z,2.12
2022-10-08T19:54:18.580Z,3.90
2022-10-08T19:56:47.086Z,2.70
2022-10-08T19:59:17.538Z,2.33
2022-10-08T20:01:46.127Z,5.90
2022-10-08T20:04:16.388Z,4.03
2022-10-08T20:06:45.218Z,5.42
2022-10-08T20:09:14.916Z,3.62
2022-10-08T20:11:46.205Z,2.90
2022-10-08T20:14:15.781Z,2.25
2022-10-08T20:16:44.894Z,2.85
2022-10-08T20:19:25.250Z,5.22
2022-10-08T20:21:57.105Z,2.45
2022-10-08T20:24:25.623Z,5.83
2022-10-08T20:26:54.174Z,2.92
2022-10-08T20:29:27.451Z,5.95
2022-10-08T20:31:57.756Z,3.77
2022-10-08T20:37:20.636Z,3.52
2022-10-08T20:39:49.191Z,3.67
2022-10-08T20:42:17.744Z,2.20
2022-10-08T20:44:48.972Z,4.00
2022-10-08T20:47:19.275Z,3.75
2022-10-08T20:49:47.908Z,6.42
2022-10-08T20:52:16.519Z,6.40
2022-10-08T20:54:45.163Z,6.92
2022-10-08T20:57:13.998Z,5.67
2022-10-08T20:59:42.523Z,8.78
2022-10-08T21:02:12.582Z,8.38
2022-10-08T21:04:42.401Z,7.85
2022-10-08T21:07:11.067Z,7.05
2022-10-08T21:09:39.823Z,6.80
2022-10-08T21:12:08.580Z,6.33
2022-10-08T21:14:37.237Z,5.78
2022-10-08T21:17:05.792Z,6.92
2022-10-08T21:19:34.480Z,6.17
2022-10-08T21:22:03.224Z,5.12
2022-10-08T21:24:32.030Z,4.47
2022-10-08T21:27:00.565Z,8.98
2022-10-08T21:29:29.160Z,6.08
2022-10-08T21:31:57.922Z,6.60
2022-10-08T21:34:26.690Z,8.45
2022-10-08T21:36:55.517Z,6.17
2022-10-08T21:39:24.070Z,7.97
2022-10-08T21:41:54.355Z,8.03
2022-10-08T21:44:23.138Z,8.63
2022-10-08T21:46:51.724Z,5.97
2022-10-08T21:49:21.208Z,6.80
2022-10-08T21:51:50.030Z,5.90
2022-10-08T21:54:18.828Z,5.83
2022-10-08T21:56:47.813Z,5.03
2022-10-08T21:59:17.435Z,9.40
2022-10-08T22:01:48.503Z,6.72
2022-10-08T22:04:22.981Z,5.35
2022-10-08T22:06:58.534Z,4.53
2022-10-08T22:09:30.144Z,4.67
2022-10-08T22:11:59.971Z,4.58
2022-10-08T22:14:29.142Z,5.30
2022-10-08T22:16:57.922Z,5.92
2022-10-08T22:19:26.513Z,4.55
2022-10-08T22:21:55.069Z,6.53
2022-10-08T22:24:23.618Z,4.17
2022-10-08T22:26:52.175Z,3.77
2022-10-08T22:29:20.741Z,5.58
2022-10-08T22:31:49.338Z,7.28
2022-10-08T22:34:17.942Z,5.03
2022-10-08T22:36:46.525Z,5.50
2022-10-08T22:39:15.078Z,4.42
2022-10-08T22:41:43.707Z,7.10
2022-10-08T22:44:12.254Z,5.85
2022-10-08T22:46:41.182Z,5.75
2022-10-08T22:49:12.498Z,7.53
2022-10-08T22:51:43.748Z,7.17
2022-10-08T22:54:12.372Z,6.97
2022-10-08T22:56:41.308Z,5.45
2022-10-08T22:59:10.464Z,4.37
2022-10-08T23:01:39.093Z,4.97
2022-10-08T23:04:07.702Z,3.30
2022-10-08T23:06:36.468Z,6.92
2022-10-08T23:09:08.040Z,5.95
2022-10-08T23:11:36.800Z,6.33
2022-10-08T23:14:06.639Z,4.37
2022-10-08T23:16:35.781Z,4.37
2022-10-08T23:19:09.603Z,3.33
2022-10-08T23:21:38.915Z,5.05
2022-10-08T23:24:07.622Z,5.65
2022-10-08T23:26:36.810Z,3.47
2022-10-08T23:29:05.840Z,5.12
2022-10-08T23:31:36.566Z,4.22
2022-10-08T23:34:08.514Z,5.78
2022-10-08T23:36:40.148Z,5.33
2022-10-08T23:39:11.717Z,6.40
2022-10-08T23:41:40.250Z,8.00
2022-10-08T23:44:11.163Z,8.08
2022-10-08T23:46:39.803Z,7.05
2022-10-08T23:49:09.407Z,4.92
2022-10-08T23:51:38.116Z,6.50
2022-10-08T23:54:06.746Z,7.17
2022-10-08T23:56:35.281Z,6.42
2022-10-08T23:59:03.895Z,7.25
